Time;durP1;ratioP1;P1;durP2;ratioP2;P2;SDS_P1;SDS_P2;PMS_P1;PMS_P2;Temp;Humidity;BMP_temperature;BMP_pressure;BME280_temperature;BME280_humidity;BME280_pressure;Samples;Min_cycle;Max_cycle;Signal;HPM_P1;HPM_P2
2024/02/25 00:01:52;;;;;;;21.93;8.90;;;;;;;;;;6183114;23;20147;-92
2024/02/25 00:04:58;;;;;;;19.37;7.80;;;;;;;;;;6183161;23;20184;-93
2024/02/25 00:08:03;;;;;;;16.30;7.57;;;;;;;;;;6182451;23;20655;-93
2024/02/25 00:11:10;;;;;;;15.70;7.93;;;;;;;;;;6181713;23;20203;-91
2024/02/25 00:14:15;;;;;;;17.40;7.93;;;;;;;;;;6182628;23;20223;-93
2024/02/25 00:17:21;;;;;;;17.10;8.23;;;;;;;;;;6183062;23;20171;-93
2024/02/25 00:20:26;;;;;;;22.43;7.87;;;;;;;;;;6183168;23;20195;-92
2024/02/25 00:23:31;;;;;;;27.30;8.57;;;;;;;;;;6182342;23;20167;-93
2024/02/25 00:26:38;;;;;;;28.13;8.57;;;;;;;;;;6181435;23;20168;-92
2024/02/25 00:29:44;;;;;;;24.77;8.43;;;;;;;;;;6183350;23;20214;-91
2024/02/25 00:32:49;;;;;;;16.17;8.03;;;;;;;;;;6180966;23;20167;-91
2024/02/25 00:35:54;;;;;;;15.93;7.70;;;;;;;;;;6182333;23;20171;-92
2024/02/25 00:39:01;;;;;;;15.17;7.83;;;;;;;;;;6182009;23;20164;-91
2024/02/25 00:42:07;;;;;;;15.27;7.90;;;;;;;;;;6183010;23;20171;-92
2024/02/25 00:45:13;;;;;;;16.07;7.43;;;;;;;;;;6181313;23;20168;-90
2024/02/25 00:48:18;;;;;;;20.03;7.93;;;;;;;;;;6180916;23;20200;-92
2024/02/25 00:51:23;;;;;;;19.47;8.63;;;;;;;;;;6180720;23;20143;-93
2024/02/25 00:54:28;;;;;;;18.03;8.03;;;;;;;;;;6180121;23;20219;-91
2024/02/25 00:57:37;;;;;;;17.13;7.87;;;;;;;;;;6180409;23;20231;-90
2024/02/25 01:00:43;;;;;;;15.37;7.30;;;;;;;;;;6179965;23;20191;-89
2024/02/25 01:03:48;;;;;;;14.00;6.90;;;;;;;;;;6179351;23;20180;-92
2024/02/25 01:06:53;;;;;;;12.60;6.77;;;;;;;;;;6181339;23;20156;-92
2024/02/25 01:09:58;;;;;;;15.70;7.50;;;;;;;;;;6179292;23;20203;-92
2024/02/25 01:13:05;;;;;;;17.43;8.47;;;;;;;;;;6180186;23;20164;-91
2024/02/25 01:16:10;;;;;;;15.43;7.17;;;;;;;;;;6181138;23;20211;-91
2024/02/25 01:19:17;;;;;;;14.40;6.73;;;;;;;;;;6181130;23;20187;-92
2024/02/25 01:22:22;;;;;;;14.63;6.73;;;;;;;;;;6180733;23;20164;-91
2024/02/25 01:25:27;;;;;;;12.60;7.80;;;;;;;;;;6180266;23;20168;-91
2024/02/25 01:28:34;;;;;;;16.57;7.73;;;;;;;;;;6180154;23;20195;-92
2024/02/25 01:31:43;;;;;;;11.73;6.77;;;;;;;;;;6181115;23;20181;-93
2024/02/25 01:34:50;;;;;;;11.90;6.63;;;;;;;;;;6182312;23;20168;-91
2024/02/25 01:37:55;;;;;;;12.23;6.77;;;;;;;;;;6179772;23;20307;-91
2024/02/25 01:41:00;;;;;;;12.50;6.73;;;;;;;;;;6179635;23;20171;-91
2024/02/25 01:44:07;;;;;;;14.03;7.20;;;;;;;;;;6178796;23;20168;-92
2024/02/25 01:47:12;;;;;;;14.80;7.23;;;;;;;;;;6178581;23;20168;-91
2024/02/25 01:50:17;;;;;;;12.80;6.90;;;;;;;;;;6177233;23;20247;-92
2024/02/25 01:53:23;;;;;;;13.33;6.40;;;;;;;;;;6177874;23;20284;-91
2024/02/25 01:56:30;;;;;;;12.50;6.83;;;;;;;;;;6180548;23;20150;-90
2024/02/25 01:59:36;;;;;;;13.43;6.97;;;;;;;;;;6181768;23;20175;-91
2024/02/25 02:02:42;;;;;;;13.73;7.10;;;;;;;;;;6182030;23;20167;-91
2024/02/25 02:05:47;;;;;;;12.23;6.77;;;;;;;;;;6181899;23;20195;-91
2024/02/25 02:08:53;;;;;;;14.13;7.27;;;;;;;;;;6180541;23;20198;-92
2024/02/25 02:12:03;;;;;;;14.23;7.67;;;;;;;;;;6179650;23;20164;-91
2024/02/25 02:15:10;;;;;;;16.07;7.27;;;;;;;;;;6180885;23;20688;-91
2024/02/25 02:18:16;;;;;;;11.37;6.50;;;;;;;;;;6181159;23;20168;-93
2024/02/25 02:21:23;;;;;;;13.50;6.77;;;;;;;;;;6180382;23;20175;-91
2024/02/25 02:24:28;;;;;;;14.97;7.77;;;;;;;;;;6179615;23;20159;-93
2024/02/25 02:27:34;;;;;;;12.90;6.80;;;;;;;;;;6179677;23;20155;-91
2024/02/25 02:30:39;;;;;;;12.87;6.90;;;;;;;;;;6180498;23;20172;-92
2024/02/25 02:33:44;;;;;;;11.87;6.80;;;;;;;;;;6180953;23;20238;-89
2024/02/25 02:36:51;;;;;;;11.90;6.40;;;;;;;;;;6179519;23;20275;-91
2024/02/25 02:39:56;;;;;;;11.63;6.83;;;;;;;;;;6180867;23;20168;-91
2024/02/25 02:43:02;;;;;;;11.80;6.80;;;;;;;;;;6180518;23;20168;-91
2024/02/25 02:46:09;;;;;;;11.63;5.87;;;;;;;;;;6180954;23;20164;-92
2024/02/25 02:49:14;;;;;;;12.73;6.60;;;;;;;;;;6184789;23;20241;-92
2024/02/25 02:52:21;;;;;;;18.30;7.10;;;;;;;;;;6184924;23;20167;-92
2024/02/25 02:55:26;;;;;;;11.20;6.60;;;;;;;;;;6184525;23;20164;-92
2024/02/25 02:58:31;;;;;;;13.40;7.00;;;;;;;;;;6182709;23;20184;-93
2024/02/25 03:01:37;;;;;;;14.10;7.27;;;;;;;;;;6183208;23;20185;-91
2024/02/25 03:04:42;;;;;;;11.90;6.87;;;;;;;;;;6184201;23;20172;-91
2024/02/25 03:07:53;;;;;;;14.50;7.23;;;;;;;;;;6183132;23;20144;-92
2024/02/25 03:10:58;;;;;;;12.73;6.50;;;;;;;;;;6183532;23;20292;-91
2024/02/25 03:14:03;;;;;;;13.50;7.13;;;;;;;;;;6182254;23;20239;-92
2024/02/25 03:17:08;;;;;;;11.67;6.80;;;;;;;;;;6183061;23;20156;-92
2024/02/25 03:20:14;;;;;;;13.60;7.13;;;;;;;;;;6182052;23;20195;-91
2024/02/25 03:23:20;;;;;;;15.30;7.10;;;;;;;;;;6184199;23;20498;-92
2024/02/25 03:26:27;;;;;;;14.80;7.30;;;;;;;;;;6181833;23;20152;-94
2024/02/25 03:29:32;;;;;;;10.37;6.00;;;;;;;;;;6183611;23;20192;-92
2024/02/25 03:32:41;;;;;;;11.83;6.23;;;;;;;;;;6182045;23;20168;-92
2024/02/25 03:35:47;;;;;;;11.47;6.90;;;;;;;;;;6180256;23;20224;-92
2024/02/25 03:38:53;;;;;;;13.60;7.30;;;;;;;;;;6182786;23;20325;-92
2024/02/25 03:41:59;;;;;;;11.87;6.77;;;;;;;;;;6180733;23;20171;-92
2024/02/25 03:45:04;;;;;;;13.30;6.93;;;;;;;;;;6181756;23;20159;-92
2024/02/25 03:48:09;;;;;;;11.63;6.63;;;;;;;;;;6180032;23;20280;-92
2024/02/25 03:51:18;;;;;;;10.70;6.67;;;;;;;;;;6182275;23;20152;-91
2024/02/25 03:54:25;;;;;;;11.90;6.40;;;;;;;;;;6199474;23;20591;-91
2024/02/25 03:57:31;;;;;;;30.27;14.60;;;;;;;;;;6180646;23;20235;-90
2024/02/25 04:00:36;;;;;;;13.43;6.70;;;;;;;;;;6182533;23;20186;-91
2024/02/25 04:03:41;;;;;;;13.10;6.90;;;;;;;;;;6180728;23;20295;-91
2024/02/25 04:06:46;;;;;;;11.63;6.20;;;;;;;;;;6181017;23;20164;-91
2024/02/25 04:09:55;;;;;;;12.83;7.00;;;;;;;;;;6182380;23;20195;-91
2024/02/25 04:13:09;;;;;;;12.13;6.47;;;;;;;;;;6183882;23;20184;-93
2024/02/25 04:16:15;;;;;;;13.00;6.40;;;;;;;;;;6182168;23;20161;-92
2024/02/25 04:19:20;;;;;;;12.37;6.90;;;;;;;;;;6200741;23;20223;-89
2024/02/25 04:22:26;;;;;;;15.50;7.90;;;;;;;;;;6184995;23;20167;-92
2024/02/25 04:25:33;;;;;;;22.13;9.33;;;;;;;;;;6184886;23;20204;-92
2024/02/25 04:28:38;;;;;;;21.40;9.20;;;;;;;;;;6183679;23;20214;-92
2024/02/25 04:31:45;;;;;;;32.77;12.43;;;;;;;;;;6183372;23;20159;-91
2024/02/25 04:34:50;;;;;;;29.63;11.43;;;;;;;;;;6181785;23;20171;-92
2024/02/25 04:37:56;;;;;;;28.70;12.03;;;;;;;;;;6182844;23;20197;-91
2024/02/25 04:41:03;;;;;;;25.73;12.17;;;;;;;;;;6181979;23;20176;-93
2024/02/25 04:44:10;;;;;;;35.83;13.93;;;;;;;;;;6181979;23;20163;-92
2024/02/25 04:47:16;;;;;;;30.33;11.70;;;;;;;;;;6181770;23;20168;-90
2024/02/25 04:50:22;;;;;;;30.70;11.47;;;;;;;;;;6181119;23;20195;-92
2024/02/25 04:53:27;;;;;;;19.03;8.80;;;;;;;;;;6181254;23;20155;-92
2024/02/25 04:56:34;;;;;;;23.33;9.23;;;;;;;;;;6181490;23;20152;-92
2024/02/25 04:59:39;;;;;;;19.70;9.30;;;;;;;;;;6180898;23;20168;-92
2024/02/25 05:02:44;;;;;;;20.50;8.67;;;;;;;;;;6180910;23;20152;-92
2024/02/25 05:05:49;;;;;;;18.47;8.87;;;;;;;;;;6181099;23;20164;-92
2024/02/25 05:08:54;;;;;;;14.00;7.83;;;;;;;;;;6180653;23;20163;-93
2024/02/25 05:12:01;;;;;;;19.23;8.30;;;;;;;;;;6180505;23;20208;-91
2024/02/25 05:15:06;;;;;;;18.97;8.90;;;;;;;;;;6179792;23;20211;-90
2024/02/25 05:18:12;;;;;;;19.10;9.00;;;;;;;;;;6179931;23;20176;-93
2024/02/25 05:21:17;;;;;;;21.43;8.97;;;;;;;;;;6180973;23;20159;-92
2024/02/25 05:24:22;;;;;;;20.43;9.70;;;;;;;;;;6179918;23;20288;-91
2024/02/25 05:27:35;;;;;;;19.27;8.90;;;;;;;;;;6180742;23;20203;-92
2024/02/25 05:30:40;;;;;;;18.67;8.53;;;;;;;;;;6182267;23;20188;-91
2024/02/25 05:33:45;;;;;;;21.07;8.67;;;;;;;;;;6181283;23;20482;-92
2024/02/25 05:36:53;;;;;;;24.70;9.97;;;;;;;;;;6181724;23;20168;-91
2024/02/25 05:39:58;;;;;;;24.23;9.80;;;;;;;;;;6181769;23;20172;-91
2024/02/25 05:43:04;;;;;;;24.63;9.17;;;;;;;;;;6182403;23;20180;-93
2024/02/25 05:46:10;;;;;;;33.27;11.40;;;;;;;;;;6182139;23;20241;-90
2024/02/25 05:49:15;;;;;;;24.70;9.53;;;;;;;;;;6183038;23;20164;-92
2024/02/25 05:52:20;;;;;;;22.77;8.90;;;;;;;;;;6182777;23;20239;-92
2024/02/25 05:55:25;;;;;;;25.90;9.43;;;;;;;;;;6182245;23;20159;-91
2024/02/25 05:58:33;;;;;;;22.87;9.07;;;;;;;;;;6180888;23;20151;-91
2024/02/25 06:01:39;;;;;;;23.30;9.17;;;;;;;;;;6182235;23;20207;-91
2024/02/25 06:04:44;;;;;;;27.23;9.97;;;;;;;;;;6181863;23;20251;-92
2024/02/25 06:07:49;;;;;;;33.50;10.60;;;;;;;;;;6180940;23;20239;-92
2024/02/25 06:10:54;;;;;;;32.03;10.60;;;;;;;;;;6180251;23;20348;-92
2024/02/25 06:14:01;;;;;;;38.67;12.50;;;;;;;;;;6179963;23;20151;-91
2024/02/25 06:17:06;;;;;;;31.43;12.60;;;;;;;;;;6180580;23;20183;-92
2024/02/25 06:20:12;;;;;;;44.43;13.20;;;;;;;;;;6180722;23;20211;-92
2024/02/25 06:23:18;;;;;;;33.77;11.67;;;;;;;;;;6181960;23;20179;-91
2024/02/25 06:26:22;;;;;;;43.87;11.37;;;;;;;;;;6181224;23;20242;-92
2024/02/25 06:29:29;;;;;;;44.37;13.63;;;;;;;;;;6183751;23;20168;-91
2024/02/25 06:32:34;;;;;;;36.70;11.23;;;;;;;;;;6180686;23;20152;-92
2024/02/25 06:35:39;;;;;;;36.67;11.97;;;;;;;;;;6180982;23;20225;-91
2024/02/25 06:38:44;;;;;;;40.37;12.47;;;;;;;;;;6181563;23;20171;-91
2024/02/25 06:41:51;;;;;;;37.63;11.97;;;;;;;;;;6181818;23;20172;-91
2024/02/25 06:44:58;;;;;;;47.27;13.70;;;;;;;;;;6180973;23;20175;-91
2024/02/25 06:48:03;;;;;;;41.50;12.00;;;;;;;;;;6182286;23;20307;-91
2024/02/25 06:51:08;;;;;;;44.63;12.87;;;;;;;;;;6181873;23;20255;-91
2024/02/25 06:54:13;;;;;;;39.63;12.07;;;;;;;;;;6182852;23;20206;-91
2024/02/25 06:57:19;;;;;;;41.27;11.80;;;;;;;;;;6180215;23;20692;-92
2024/02/25 07:00:26;;;;;;;30.93;10.43;;;;;;;;;;6181310;23;20168;-91
2024/02/25 07:03:31;;;;;;;39.03;10.47;;;;;;;;;;6181931;23;20163;-90
2024/02/25 07:06:37;;;;;;;45.17;11.23;;;;;;;;;;6181554;23;20163;-91
2024/02/25 07:09:43;;;;;;;40.50;11.03;;;;;;;;;;6182031;23;20268;-92
2024/02/25 07:12:48;;;;;;;38.27;11.33;;;;;;;;;;6181262;23;20167;-92
2024/02/25 07:15:54;;;;;;;38.63;11.27;;;;;;;;;;6180227;23;20287;-91
2024/02/25 07:19:00;;;;;;;38.10;12.97;;;;;;;;;;6184346;23;20186;-91
2024/02/25 07:22:05;;;;;;;48.93;13.20;;;;;;;;;;6182183;23;20220;-92
2024/02/25 07:25:12;;;;;;;46.10;12.17;;;;;;;;;;6182129;23;20167;-91
2024/02/25 07:28:17;;;;;;;43.33;12.13;;;;;;;;;;6182078;23;20199;-93
2024/02/25 07:31:23;;;;;;;50.50;13.23;;;;;;;;;;6181122;23;20195;-91
2024/02/25 07:34:28;;;;;;;46.47;12.53;;;;;;;;;;6182998;23;20167;-91
2024/02/25 07:37:33;;;;;;;45.57;13.97;;;;;;;;;;6181086;23;20171;-91
2024/02/25 07:40:39;;;;;;;44.50;12.13;;;;;;;;;;6180076;23;20664;-90
2024/02/25 07:43:44;;;;;;;43.00;13.53;;;;;;;;;;6181691;23;20148;-91
2024/02/25 07:46:51;;;;;;;50.50;12.77;;;;;;;;;;6181328;23;20164;-92
2024/02/25 07:49:56;;;;;;;52.97;13.77;;;;;;;;;;6178281;23;20637;-93
2024/02/25 07:53:01;;;;;;;44.17;13.27;;;;;;;;;;6182729;23;20168;-92
2024/02/25 07:56:09;;;;;;;53.20;13.73;;;;;;;;;;6181911;23;20276;-93
2024/02/25 07:59:14;;;;;;;48.77;14.27;;;;;;;;;;6184030;23;20223;-93
2024/02/25 08:02:21;;;;;;;42.10;13.87;;;;;;;;;;6184060;23;20207;-94
2024/02/25 08:05:26;;;;;;;42.90;12.10;;;;;;;;;;6183360;23;20208;-91
2024/02/25 08:08:32;;;;;;;42.77;12.90;;;;;;;;;;6184670;23;20221;-92
2024/02/25 08:11:37;;;;;;;44.77;13.30;;;;;;;;;;6182414;23;20195;-91
2024/02/25 08:14:42;;;;;;;40.67;12.10;;;;;;;;;;6182642;23;20175;-92
2024/02/25 08:17:49;;;;;;;46.97;12.73;;;;;;;;;;6180141;23;20203;-92
2024/02/25 08:20:54;;;;;;;41.23;12.80;;;;;;;;;;6182261;23;20224;-91
2024/02/25 08:23:59;;;;;;;42.93;13.23;;;;;;;;;;6182938;23;20160;-92
2024/02/25 08:27:05;;;;;;;39.17;13.77;;;;;;;;;;6185597;23;20156;-91
2024/02/25 08:30:12;;;;;;;38.47;12.37;;;;;;;;;;6184937;23;20239;-91
2024/02/25 08:33:19;;;;;;;40.40;12.70;;;;;;;;;;6182481;23;20175;-92
2024/02/25 08:36:24;;;;;;;37.70;12.60;;;;;;;;;;6181449;23;20183;-94
2024/02/25 08:39:29;;;;;;;46.53;14.02;;;;;;;;;;6182854;23;20167;-93
2024/02/25 08:42:34;;;;;;;42.03;14.03;;;;;;;;;;6185938;23;20630;-92
2024/02/25 08:45:40;;;;;;;47.17;14.77;;;;;;;;;;6183123;23;20219;-90
2024/02/25 08:48:47;;;;;;;40.50;15.23;;;;;;;;;;6181701;23;20188;-91
2024/02/25 08:51:52;;;;;;;39.50;14.10;;;;;;;;;;6179500;23;20205;-90
2024/02/25 08:54:57;;;;;;;33.78;12.95;;;;;;;;;;6181775;23;20172;-90
2024/02/25 08:58:03;;;;;;;39.73;14.83;;;;;;;;;;6180942;23;20163;-91
2024/02/25 09:01:08;;;;;;;36.70;12.55;;;;;;;;;;6181268;23;20510;-92
2024/02/25 09:04:15;;;;;;;36.30;13.70;;;;;;;;;;6181514;23;20164;-92
2024/02/25 09:07:23;;;;;;;35.95;13.63;;;;;;;;;;6180352;23;20234;-91
2024/02/25 09:10:29;;;;;;;36.00;12.98;;;;;;;;;;6179659;23;20184;-92
2024/02/25 09:13:34;;;;;;;37.72;13.77;;;;;;;;;;6179272;23;20156;-91
2024/02/25 09:16:39;;;;;;;39.00;14.38;;;;;;;;;;6178201;23;20184;-91
2024/02/25 09:19:45;;;;;;;36.05;13.93;;;;;;;;;;6179491;23;20239;-92
2024/02/25 09:22:50;;;;;;;41.97;14.73;;;;;;;;;;6177925;23;20167;-92
2024/02/25 09:25:56;;;;;;;42.67;14.90;;;;;;;;;;6180658;23;20163;-91
2024/02/25 09:29:02;;;;;;;38.88;14.48;;;;;;;;;;6184658;23;20171;-92
2024/02/25 09:32:10;;;;;;;43.92;15.40;;;;;;;;;;6184151;23;20211;-91
2024/02/25 09:35:16;;;;;;;47.22;15.95;;;;;;;;;;6181392;23;20179;-91
2024/02/25 09:38:22;;;;;;;49.08;16.70;;;;;;;;;;6180325;23;20217;-91
2024/02/25 09:41:28;;;;;;;42.90;15.35;;;;;;;;;;6180772;23;20164;-91
2024/02/25 09:44:35;;;;;;;46.92;15.95;;;;;;;;;;6182902;23;20203;-91
2024/02/25 09:47:41;;;;;;;47.08;16.30;;;;;;;;;;6183438;23;20163;-92
2024/02/25 09:50:49;;;;;;;49.83;16.45;;;;;;;;;;6182033;23;20275;-92
2024/02/25 09:53:56;;;;;;;42.13;15.68;;;;;;;;;;6181662;23;20220;-92
2024/02/25 09:57:01;;;;;;;57.47;20.33;;;;;;;;;;6180757;23;20155;-92
2024/02/25 10:00:09;;;;;;;47.83;16.30;;;;;;;;;;6181543;23;20505;-93
2024/02/25 10:03:15;;;;;;;41.85;14.48;;;;;;;;;;6182997;23;20669;-92
2024/02/25 10:06:21;;;;;;;46.75;18.63;;;;;;;;;;6180874;23;20156;-92
2024/02/25 10:09:30;;;;;;;50.17;19.52;;;;;;;;;;6183614;23;20164;-93
2024/02/25 10:12:38;;;;;;;39.97;14.38;;;;;;;;;;6183889;23;20223;-92
2024/02/25 10:15:42;;;;;;;39.17;14.98;;;;;;;;;;6183938;23;20168;-92
2024/02/25 10:18:49;;;;;;;37.88;14.45;;;;;;;;;;6183477;23;20191;-91
2024/02/25 10:22:06;;;;;;;43.15;15.10;;;;;;;;;;6182832;23;20164;-92
2024/02/25 10:25:12;;;;;;;40.13;15.63;;;;;;;;;;6182745;23;20256;-93
2024/02/25 10:28:18;;;;;;;34.78;14.38;;;;;;;;;;6182276;23;20192;-92
2024/02/25 10:31:23;;;;;;;39.17;15.13;;;;;;;;;;6183009;23;20234;-91
2024/02/25 10:34:28;;;;;;;37.00;14.32;;;;;;;;;;6182098;23;20168;-92
2024/02/25 10:37:34;;;;;;;41.95;16.08;;;;;;;;;;6185371;23;20172;-91
2024/02/25 10:40:40;;;;;;;37.28;14.38;;;;;;;;;;6183189;23;20222;-92
2024/02/25 10:43:50;;;;;;;43.85;14.45;;;;;;;;;;6181583;23;20171;-90
2024/02/25 10:46:57;;;;;;;37.55;15.02;;;;;;;;;;6183857;23;20176;-92
2024/02/25 10:50:02;;;;;;;35.88;14.40;;;;;;;;;;6181124;23;20155;-91
2024/02/25 10:53:11;;;;;;;41.28;17.00;;;;;;;;;;6180777;23;20221;-90
2024/02/25 10:56:17;;;;;;;40.95;15.13;;;;;;;;;;6181577;23;20679;-90
2024/02/25 10:59:24;;;;;;;35.10;14.55;;;;;;;;;;6180898;23;20164;-90
2024/02/25 11:02:30;;;;;;;36.08;14.05;;;;;;;;;;6180264;23;20167;-91
2024/02/25 11:05:35;;;;;;;34.85;14.32;;;;;;;;;;6180935;23;20216;-90
2024/02/25 11:08:44;;;;;;;32.05;13.52;;;;;;;;;;6180775;23;20239;-90
2024/02/25 11:11:49;;;;;;;31.92;13.68;;;;;;;;;;6180759;23;20193;-90
2024/02/25 11:15:00;;;;;;;30.05;13.30;;;;;;;;;;6181444;23;20628;-89
2024/02/25 11:21:33;;;;;;;27.17;11.88;;;;;;;;;;6188081;23;20184;-91
2024/02/25 23:18:22;;;;;;;31.17;9.87;;;;;;;;;;6154578;23;20216;-91
2024/02/25 23:21:27;;;;;;;147.47;13.07;;;;;;;;;;6169129;23;20770;-91
2024/02/25 23:24:32;;;;;;;59.67;9.73;;;;;;;;;;6168444;23;20168;-90
2024/02/25 23:27:37;;;;;;;62.97;9.83;;;;;;;;;;6169308;23;20176;-90
2024/02/25 23:30:43;;;;;;;33.63;9.90;;;;;;;;;;6173566;23;20185;-89
2024/02/25 23:33:50;;;;;;;29.13;9.50;;;;;;;;;;6170869;23;20229;-91
2024/02/25 23:36:56;;;;;;;46.43;10.60;;;;;;;;;;6169923;23;20203;-92
2024/02/25 23:40:03;;;;;;;28.10;10.00;;;;;;;;;;6168819;23;20176;-91
2024/02/25 23:43:08;;;;;;;34.70;9.43;;;;;;;;;;6168586;23;20172;-92
2024/02/25 23:46:13;;;;;;;27.43;9.10;;;;;;;;;;6166887;23;20161;-91
2024/02/25 23:49:20;;;;;;;20.80;8.87;;;;;;;;;;6168575;23;20161;-91
2024/02/25 23:52:25;;;;;;;23.77;9.00;;;;;;;;;;6168244;23;20523;-91
2024/02/25 23:55:33;;;;;;;50.23;9.67;;;;;;;;;;6170352;23;20168;-91
2024/02/25 23:58:39;;;;;;;92.23;10.90;;;;;;;;;;6173768;23;20168;-91
